sensor_id;sensor_type;location;lat;lon;timestamp;temperature;humidity
22698;DHT22;11516;51.612;7.510;2023-04-24T00:00:54;12.10;99.90
22698;DHT22;11516;51.612;7.510;2023-04-24T00:03:22;12.10;99.90
22698;DHT22;11516;51.612;7.510;2023-04-24T00:05:48;12.10;99.90
22698;DHT22;11516;51.612;7.510;2023-04-24T00:08:13;12.20;99.90
22698;DHT22;11516;51.612;7.510;2023-04-24T00:10:39;12.10;99.90
22698;DHT22;11516;51.612;7.510;2023-04-24T00:13:04;12.10;99.90
22698;DHT22;11516;51.612;7.510;2023-04-24T00:15:30;12.10;99.90
22698;DHT22;11516;51.612;7.510;2023-04-24T00:17:56;12.10;99.90
22698;DHT22;11516;51.612;7.510;2023-04-24T00:20:21;12.00;99.90
22698;DHT22;11516;51.612;7.510;2023-04-24T00:22:47;12.00;99.90
22698;DHT22;11516;51.612;7.510;2023-04-24T00:25:13;12.00;99.90
22698;DHT22;11516;51.612;7.510;2023-04-24T00:27:38;12.00;99.90
22698;DHT22;11516;51.612;7.510;2023-04-24T00:30:05;11.90;99.90
22698;DHT22;11516;51.612;7.510;2023-04-24T00:32:30;11.90;99.90
22698;DHT22;11516;51.612;7.510;2023-04-24T00:34:56;11.90;99.90
22698;DHT22;11516;51.612;7.510;2023-04-24T00:37:21;11.80;99.90
22698;DHT22;11516;51.612;7.510;2023-04-24T00:39:47;11.80;99.90
22698;DHT22;11516;51.612;7.510;2023-04-24T00:42:12;11.70;99.90
22698;DHT22;11516;51.612;7.510;2023-04-24T00:44:38;11.70;99.90
22698;DHT22;11516;51.612;7.510;2023-04-24T00:47:04;11.70;99.90
22698;DHT22;11516;51.612;7.510;2023-04-24T00:49:30;11.70;99.90
22698;DHT22;11516;51.612;7.510;2023-04-24T00:51:55;11.70;99.90
22698;DHT22;11516;51.612;7.510;2023-04-24T00:54:22;11.60;99.90
22698;DHT22;11516;51.612;7.510;2023-04-24T00:56:47;11.50;99.90
22698;DHT22;11516;51.612;7.510;2023-04-24T00:59:15;11.50;99.90
22698;DHT22;11516;51.612;7.510;2023-04-24T01:01:41;11.40;99.90
22698;DHT22;11516;51.612;7.510;2023-04-24T01:04:07;11.40;99.90
22698;DHT22;11516;51.612;7.510;2023-04-24T01:06:35;11.40;99.90
22698;DHT22;11516;51.612;7.510;2023-04-24T01:09:02;11.30;99.90
22698;DHT22;11516;51.612;7.510;2023-04-24T01:11:28;11.40;99.90
22698;DHT22;11516;51.612;7.510;2023-04-24T01:13:55;11.30;99.90
22698;DHT22;11516;51.612;7.510;2023-04-24T01:16:21;11.30;99.90
22698;DHT22;11516;51.612;7.510;2023-04-24T01:18:47;11.20;99.90
22698;DHT22;11516;51.612;7.510;2023-04-24T01:21:15;11.20;99.90
22698;DHT22;11516;51.612;7.510;2023-04-24T01:23:44;11.10;99.90
22698;DHT22;11516;51.612;7.510;2023-04-24T01:26:11;11.10;99.90
22698;DHT22;11516;51.612;7.510;2023-04-24T01:28:37;11.10;99.90
22698;DHT22;11516;51.612;7.510;2023-04-24T01:31:03;11.00;99.90
22698;DHT22;11516;51.612;7.510;2023-04-24T01:33:28;11.00;99.90
22698;DHT22;11516;51.612;7.510;2023-04-24T01:35:54;11.00;99.90
22698;DHT22;11516;51.612;7.510;2023-04-24T01:38:20;11.00;99.90
22698;DHT22;11516;51.612;7.510;2023-04-24T01:40:46;11.00;99.90
22698;DHT22;11516;51.612;7.510;2023-04-24T01:43:12;11.10;99.90
22698;DHT22;11516;51.612;7.510;2023-04-24T01:45:37;11.10;99.90
22698;DHT22;11516;51.612;7.510;2023-04-24T01:48:03;11.10;99.90
22698;DHT22;11516;51.612;7.510;2023-04-24T01:50:29;11.10;99.90
22698;DHT22;11516;51.612;7.510;2023-04-24T01:52:54;11.10;99.90
22698;DHT22;11516;51.612;7.510;2023-04-24T01:55:20;11.10;99.90
22698;DHT22;11516;51.612;7.510;2023-04-24T01:57:46;11.10;99.90
22698;DHT22;11516;51.612;7.510;2023-04-24T02:00:12;11.10;99.90
22698;DHT22;11516;51.612;7.510;2023-04-24T02:02:39;11.10;99.90
22698;DHT22;11516;51.612;7.510;2023-04-24T02:05:06;11.10;99.90
22698;DHT22;11516;51.612;7.510;2023-04-24T02:07:32;11.10;99.90
22698;DHT22;11516;51.612;7.510;2023-04-24T02:09:58;11.10;99.90
22698;DHT22;11516;51.612;7.510;2023-04-24T02:12:23;11.10;99.90
22698;DHT22;11516;51.612;7.510;2023-04-24T02:14:49;11.00;99.90
22698;DHT22;11516;51.612;7.510;2023-04-24T02:17:15;10.90;99.90
22698;DHT22;11516;51.612;7.510;2023-04-24T02:19:41;10.90;99.90
22698;DHT22;11516;51.612;7.510;2023-04-24T02:22:07;10.80;99.90
22698;DHT22;11516;51.612;7.510;2023-04-24T02:24:32;10.80;99.90
22698;DHT22;11516;51.612;7.510;2023-04-24T02:26:58;10.70;99.90
22698;DHT22;11516;51.612;7.510;2023-04-24T02:29:23;10.70;99.90
22698;DHT22;11516;51.612;7.510;2023-04-24T02:31:49;10.70;99.90
22698;DHT22;11516;51.612;7.510;2023-04-24T02:34:14;10.60;99.90
22698;DHT22;11516;51.612;7.510;2023-04-24T02:36:40;10.60;99.90
22698;DHT22;11516;51.612;7.510;2023-04-24T02:39:05;10.50;99.90
22698;DHT22;11516;51.612;7.510;2023-04-24T02:41:31;10.40;99.90
22698;DHT22;11516;51.612;7.510;2023-04-24T02:44:00;10.40;99.90
22698;DHT22;11516;51.612;7.510;2023-04-24T02:46:26;10.30;99.90
22698;DHT22;11516;51.612;7.510;2023-04-24T02:48:52;10.40;99.90
22698;DHT22;11516;51.612;7.510;2023-04-24T02:51:18;10.30;99.90
22698;DHT22;11516;51.612;7.510;2023-04-24T02:53:43;10.30;99.90
22698;DHT22;11516;51.612;7.510;2023-04-24T02:56:09;10.20;99.90
22698;DHT22;11516;51.612;7.510;2023-04-24T02:58:37;10.10;99.90
22698;DHT22;11516;51.612;7.510;2023-04-24T03:01:03;10.10;99.90
22698;DHT22;11516;51.612;7.510;2023-04-24T03:03:28;10.10;99.90
22698;DHT22;11516;51.612;7.510;2023-04-24T03:05:54;10.00;99.90
22698;DHT22;11516;51.612;7.510;2023-04-24T03:08:20;10.00;99.90
22698;DHT22;11516;51.612;7.510;2023-04-24T03:10:46;10.00;99.90
22698;DHT22;11516;51.612;7.510;2023-04-24T03:13:12;10.00;99.90
22698;DHT22;11516;51.612;7.510;2023-04-24T03:15:37;9.90;99.90
22698;DHT22;11516;51.612;7.510;2023-04-24T03:18:03;9.90;99.90
22698;DHT22;11516;51.612;7.510;2023-04-24T03:20:29;9.90;99.90
22698;DHT22;11516;51.612;7.510;2023-04-24T03:22:54;10.00;99.90
22698;DHT22;11516;51.612;7.510;2023-04-24T03:25:20;10.00;99.90
22698;DHT22;11516;51.612;7.510;2023-04-24T03:27:45;10.00;99.90
22698;DHT22;11516;51.612;7.510;2023-04-24T03:30:11;10.00;99.90
22698;DHT22;11516;51.612;7.510;2023-04-24T03:32:37;10.00;99.90
22698;DHT22;11516;51.612;7.510;2023-04-24T03:35:05;10.00;99.90
22698;DHT22;11516;51.612;7.510;2023-04-24T03:37:31;10.10;99.90
22698;DHT22;11516;51.612;7.510;2023-04-24T03:39:57;10.10;99.90
22698;DHT22;11516;51.612;7.510;2023-04-24T03:42:22;10.10;99.90
22698;DHT22;11516;51.612;7.510;2023-04-24T03:44:48;10.10;99.90
22698;DHT22;11516;51.612;7.510;2023-04-24T03:47:13;10.10;99.90
22698;DHT22;11516;51.612;7.510;2023-04-24T03:49:39;10.10;99.90
22698;DHT22;11516;51.612;7.510;2023-04-24T03:52:04;10.10;99.90
22698;DHT22;11516;51.612;7.510;2023-04-24T03:54:30;10.10;99.90
22698;DHT22;11516;51.612;7.510;2023-04-24T03:56:55;10.10;99.90
22698;DHT22;11516;51.612;7.510;2023-04-24T03:59:21;10.10;99.90
22698;DHT22;11516;51.612;7.510;2023-04-24T04:01:46;10.10;99.90
22698;DHT22;11516;51.612;7.510;2023-04-24T04:04:12;10.10;99.90
22698;DHT22;11516;51.612;7.510;2023-04-24T04:06:38;10.20;99.90
22698;DHT22;11516;51.612;7.510;2023-04-24T04:09:03;10.20;99.90
22698;DHT22;11516;51.612;7.510;2023-04-24T04:11:29;10.20;99.90
22698;DHT22;11516;51.612;7.510;2023-04-24T04:13:55;10.10;99.90
22698;DHT22;11516;51.612;7.510;2023-04-24T04:16:22;10.20;99.90
22698;DHT22;11516;51.612;7.510;2023-04-24T04:18:47;10.10;99.90
22698;DHT22;11516;51.612;7.510;2023-04-24T04:21:13;10.20;99.90
22698;DHT22;11516;51.612;7.510;2023-04-24T04:23:38;10.20;99.90
22698;DHT22;11516;51.612;7.510;2023-04-24T04:26:05;10.20;99.90
22698;DHT22;11516;51.612;7.510;2023-04-24T04:28:31;10.20;99.90
22698;DHT22;11516;51.612;7.510;2023-04-24T04:30:57;10.20;99.90
22698;DHT22;11516;51.612;7.510;2023-04-24T04:33:24;10.20;99.90
22698;DHT22;11516;51.612;7.510;2023-04-24T04:35:50;10.20;99.90
22698;DHT22;11516;51.612;7.510;2023-04-24T04:38:18;10.20;99.90
22698;DHT22;11516;51.612;7.510;2023-04-24T04:40:44;10.20;99.90
22698;DHT22;11516;51.612;7.510;2023-04-24T04:43:10;10.30;99.90
22698;DHT22;11516;51.612;7.510;2023-04-24T04:45:36;10.20;99.90
22698;DHT22;11516;51.612;7.510;2023-04-24T04:48:04;10.20;99.90
22698;DHT22;11516;51.612;7.510;2023-04-24T04:50:30;10.20;99.90
22698;DHT22;11516;51.612;7.510;2023-04-24T04:52:55;10.20;99.90
22698;DHT22;11516;51.612;7.510;2023-04-24T04:55:21;9.80;99.90
22698;DHT22;11516;51.612;7.510;2023-04-24T04:57:46;10.20;99.90
22698;DHT22;11516;51.612;7.510;2023-04-24T05:00:12;10.30;99.90
22698;DHT22;11516;51.612;7.510;2023-04-24T05:02:38;10.30;99.90
22698;DHT22;11516;51.612;7.510;2023-04-24T05:05:05;10.20;99.90
22698;DHT22;11516;51.612;7.510;2023-04-24T05:07:31;10.30;99.90
22698;DHT22;11516;51.612;7.510;2023-04-24T05:09:57;10.30;99.90
22698;DHT22;11516;51.612;7.510;2023-04-24T05:12:22;10.30;99.90
22698;DHT22;11516;51.612;7.510;2023-04-24T05:14:48;10.30;99.90
22698;DHT22;11516;51.612;7.510;2023-04-24T05:17:13;10.30;99.90
22698;DHT22;11516;51.612;7.510;2023-04-24T05:19:39;10.30;99.90
22698;DHT22;11516;51.612;7.510;2023-04-24T05:22:05;10.30;99.90
22698;DHT22;11516;51.612;7.510;2023-04-24T05:24:33;10.40;99.90
22698;DHT22;11516;51.612;7.510;2023-04-24T05:26:59;10.40;99.90
22698;DHT22;11516;51.612;7.510;2023-04-24T05:29:25;10.20;99.90
22698;DHT22;11516;51.612;7.510;2023-04-24T05:31:51;10.40;99.90
22698;DHT22;11516;51.612;7.510;2023-04-24T05:34:17;10.40;99.90
22698;DHT22;11516;51.612;7.510;2023-04-24T05:36:43;10.60;99.90
22698;DHT22;11516;51.612;7.510;2023-04-24T05:39:09;10.30;99.90
22698;DHT22;11516;51.612;7.510;2023-04-24T05:41:34;10.30;99.90
22698;DHT22;11516;51.612;7.510;2023-04-24T05:44:00;10.30;99.90
22698;DHT22;11516;51.612;7.510;2023-04-24T05:46:26;10.40;99.90
22698;DHT22;11516;51.612;7.510;2023-04-24T05:48:51;10.40;99.90
22698;DHT22;11516;51.612;7.510;2023-04-24T05:51:17;10.40;99.90
22698;DHT22;11516;51.612;7.510;2023-04-24T05:53:42;10.40;99.90
22698;DHT22;11516;51.612;7.510;2023-04-24T05:56:08;10.50;99.90
22698;DHT22;11516;51.612;7.510;2023-04-24T05:58:33;10.50;99.90
22698;DHT22;11516;51.612;7.510;2023-04-24T06:00:59;10.40;99.90
22698;DHT22;11516;51.612;7.510;2023-04-24T06:03:26;10.40;99.90
22698;DHT22;11516;51.612;7.510;2023-04-24T06:05:53;10.30;99.90
22698;DHT22;11516;51.612;7.510;2023-04-24T06:08:18;10.30;99.90
22698;DHT22;11516;51.612;7.510;2023-04-24T06:10:44;10.40;99.90
22698;DHT22;11516;51.612;7.510;2023-04-24T06:13:10;10.20;99.90
22698;DHT22;11516;51.612;7.510;2023-04-24T06:15:36;10.10;99.90
22698;DHT22;11516;51.612;7.510;2023-04-24T06:18:02;10.10;99.90
22698;DHT22;11516;51.612;7.510;2023-04-24T06:20:28;10.00;99.90
22698;DHT22;11516;51.612;7.510;2023-04-24T06:22:53;9.90;99.90
22698;DHT22;11516;51.612;7.510;2023-04-24T06:25:19;9.80;99.90
22698;DHT22;11516;51.612;7.510;2023-04-24T06:27:45;9.80;99.90
22698;DHT22;11516;51.612;7.510;2023-04-24T06:30:11;9.90;99.90
22698;DHT22;11516;51.612;7.510;2023-04-24T06:32:37;9.90;99.90
22698;DHT22;11516;51.612;7.510;2023-04-24T06:35:03;9.70;99.90
22698;DHT22;11516;51.612;7.510;2023-04-24T06:37:28;9.70;99.90
22698;DHT22;11516;51.612;7.510;2023-04-24T06:39:54;9.60;99.90
22698;DHT22;11516;51.612;7.510;2023-04-24T06:42:20;9.60;99.90
22698;DHT22;11516;51.612;7.510;2023-04-24T06:44:49;9.70;99.90
22698;DHT22;11516;51.612;7.510;2023-04-24T06:47:15;9.70;99.90
22698;DHT22;11516;51.612;7.510;2023-04-24T06:49:41;9.80;99.90
22698;DHT22;11516;51.612;7.510;2023-04-24T06:52:07;9.80;99.90
22698;DHT22;11516;51.612;7.510;2023-04-24T06:54:48;9.80;99.90
22698;DHT22;11516;51.612;7.510;2023-04-24T06:57:14;9.90;99.90
22698;DHT22;11516;51.612;7.510;2023-04-24T06:59:41;9.90;99.90
22698;DHT22;11516;51.612;7.510;2023-04-24T07:02:06;9.90;99.90
22698;DHT22;11516;51.612;7.510;2023-04-24T07:04:32;10.00;99.90
22698;DHT22;11516;51.612;7.510;2023-04-24T07:06:58;10.00;99.90
22698;DHT22;11516;51.612;7.510;2023-04-24T07:09:24;10.10;99.90
22698;DHT22;11516;51.612;7.510;2023-04-24T07:11:51;10.20;99.90
22698;DHT22;11516;51.612;7.510;2023-04-24T07:14:17;10.30;99.90
22698;DHT22;11516;51.612;7.510;2023-04-24T07:16:43;10.30;99.90
22698;DHT22;11516;51.612;7.510;2023-04-24T07:19:09;10.30;99.90
22698;DHT22;11516;51.612;7.510;2023-04-24T07:21:34;10.40;99.90
22698;DHT22;11516;51.612;7.510;2023-04-24T07:24:00;10.40;99.90
22698;DHT22;11516;51.612;7.510;2023-04-24T07:26:28;10.40;99.90
22698;DHT22;11516;51.612;7.510;2023-04-24T07:28:54;10.30;99.90
22698;DHT22;11516;51.612;7.510;2023-04-24T07:31:20;10.30;99.90
22698;DHT22;11516;51.612;7.510;2023-04-24T07:33:46;10.20;99.90
22698;DHT22;11516;51.612;7.510;2023-04-24T07:36:11;10.00;99.90
22698;DHT22;11516;51.612;7.510;2023-04-24T07:38:41;10.00;99.90
22698;DHT22;11516;51.612;7.510;2023-04-24T07:41:07;10.10;99.90
22698;DHT22;11516;51.612;7.510;2023-04-24T07:43:33;10.10;99.90
22698;DHT22;11516;51.612;7.510;2023-04-24T07:45:58;10.10;99.90
22698;DHT22;11516;51.612;7.510;2023-04-24T07:48:24;10.10;99.90
22698;DHT22;11516;51.612;7.510;2023-04-24T07:50:52;10.10;99.90
22698;DHT22;11516;51.612;7.510;2023-04-24T07:53:17;10.10;99.90
22698;DHT22;11516;51.612;7.510;2023-04-24T07:55:43;10.10;99.90
22698;DHT22;11516;51.612;7.510;2023-04-24T07:58:08;10.20;99.90
22698;DHT22;11516;51.612;7.510;2023-04-24T08:00:34;10.10;99.90
22698;DHT22;11516;51.612;7.510;2023-04-24T08:03:00;10.10;99.90
22698;DHT22;11516;51.612;7.510;2023-04-24T08:05:25;10.20;99.90
22698;DHT22;11516;51.612;7.510;2023-04-24T08:07:52;10.20;99.90
22698;DHT22;11516;51.612;7.510;2023-04-24T08:10:18;10.20;99.90
22698;DHT22;11516;51.612;7.510;2023-04-24T08:12:43;10.30;99.90
22698;DHT22;11516;51.612;7.510;2023-04-24T08:15:09;10.40;99.90
22698;DHT22;11516;51.612;7.510;2023-04-24T08:17:35;10.30;99.90
22698;DHT22;11516;51.612;7.510;2023-04-24T08:20:01;10.40;99.90
22698;DHT22;11516;51.612;7.510;2023-04-24T08:22:28;10.30;99.90
22698;DHT22;11516;51.612;7.510;2023-04-24T08:24:54;10.20;99.90
22698;DHT22;11516;51.612;7.510;2023-04-24T08:27:20;10.30;99.90
22698;DHT22;11516;51.612;7.510;2023-04-24T08:29:45;10.20;99.90
22698;DHT22;11516;51.612;7.510;2023-04-24T08:32:11;10.40;99.90
22698;DHT22;11516;51.612;7.510;2023-04-24T08:34:36;10.40;99.90
22698;DHT22;11516;51.612;7.510;2023-04-24T08:37:02;10.60;99.90
22698;DHT22;11516;51.612;7.510;2023-04-24T08:39:28;10.50;99.90
22698;DHT22;11516;51.612;7.510;2023-04-24T08:41:55;10.40;99.90
22698;DHT22;11516;51.612;7.510;2023-04-24T08:44:20;10.50;99.90
22698;DHT22;11516;51.612;7.510;2023-04-24T08:46:48;10.40;99.90
22698;DHT22;11516;51.612;7.510;2023-04-24T08:49:14;10.20;99.90
22698;DHT22;11516;51.612;7.510;2023-04-24T08:51:44;10.00;99.90
22698;DHT22;11516;51.612;7.510;2023-04-24T08:54:11;10.00;99.90
22698;DHT22;11516;51.612;7.510;2023-04-24T08:56:38;9.90;99.90
22698;DHT22;11516;51.612;7.510;2023-04-24T08:59:06;9.90;99.90
22698;DHT22;11516;51.612;7.510;2023-04-24T09:01:32;9.80;99.90
22698;DHT22;11516;51.612;7.510;2023-04-24T09:04:03;9.70;99.90
22698;DHT22;11516;51.612;7.510;2023-04-24T09:06:30;9.60;99.90
22698;DHT22;11516;51.612;7.510;2023-04-24T09:09:00;9.50;99.90
22698;DHT22;11516;51.612;7.510;2023-04-24T09:11:26;9.50;99.90
22698;DHT22;11516;51.612;7.510;2023-04-24T09:13:53;9.60;99.90
22698;DHT22;11516;51.612;7.510;2023-04-24T09:16:20;9.50;99.90
22698;DHT22;11516;51.612;7.510;2023-04-24T09:18:46;9.50;99.90
22698;DHT22;11516;51.612;7.510;2023-04-24T09:21:11;9.40;99.90
22698;DHT22;11516;51.612;7.510;2023-04-24T09:23:37;9.40;99.90
22698;DHT22;11516;51.612;7.510;2023-04-24T09:26:03;9.30;99.90
22698;DHT22;11516;51.612;7.510;2023-04-24T09:28:35;9.20;99.90
22698;DHT22;11516;51.612;7.510;2023-04-24T09:31:03;9.30;99.90
22698;DHT22;11516;51.612;7.510;2023-04-24T09:33:28;9.10;99.90
22698;DHT22;11516;51.612;7.510;2023-04-24T09:35:54;9.10;99.90
22698;DHT22;11516;51.612;7.510;2023-04-24T09:38:24;9.10;99.90
22698;DHT22;11516;51.612;7.510;2023-04-24T09:40:55;9.00;99.90
22698;DHT22;11516;51.612;7.510;2023-04-24T09:43:26;9.10;99.90
22698;DHT22;11516;51.612;7.510;2023-04-24T09:45:56;8.90;99.90
22698;DHT22;11516;51.612;7.510;2023-04-24T09:48:32;9.00;99.90
22698;DHT22;11516;51.612;7.510;2023-04-24T09:50:58;9.00;99.90
22698;DHT22;11516;51.612;7.510;2023-04-24T09:53:25;8.90;99.90
22698;DHT22;11516;51.612;7.510;2023-04-24T09:55:51;8.80;99.90
22698;DHT22;11516;51.612;7.510;2023-04-24T09:58:18;8.90;99.90
22698;DHT22;11516;51.612;7.510;2023-04-24T10:00:49;8.90;99.90
22698;DHT22;11516;51.612;7.510;2023-04-24T10:03:18;9.00;99.90
22698;DHT22;11516;51.612;7.510;2023-04-24T10:05:46;8.90;99.90
22698;DHT22;11516;51.612;7.510;2023-04-24T10:08:12;9.00;99.90
22698;DHT22;11516;51.612;7.510;2023-04-24T10:10:41;9.00;99.90
22698;DHT22;11516;51.612;7.510;2023-04-24T10:13:07;9.00;99.90
22698;DHT22;11516;51.612;7.510;2023-04-24T10:15:34;9.10;99.90
22698;DHT22;11516;51.612;7.510;2023-04-24T10:18:00;9.10;99.90
22698;DHT22;11516;51.612;7.510;2023-04-24T10:20:28;9.00;99.90
22698;DHT22;11516;51.612;7.510;2023-04-24T10:22:55;9.00;99.90
22698;DHT22;11516;51.612;7.510;2023-04-24T10:25:23;8.80;99.90
22698;DHT22;11516;51.612;7.510;2023-04-24T10:27:53;8.70;99.90
22698;DHT22;11516;51.612;7.510;2023-04-24T10:30:20;8.80;99.90
22698;DHT22;11516;51.612;7.510;2023-04-24T10:35:11;8.60;99.90
22698;DHT22;11516;51.612;7.510;2023-04-24T10:37:43;8.60;99.90
22698;DHT22;11516;51.612;7.510;2023-04-24T10:40:10;8.60;99.90
22698;DHT22;11516;51.612;7.510;2023-04-24T10:42:40;8.50;99.90
22698;DHT22;11516;51.612;7.510;2023-04-24T10:45:16;8.40;99.90
22698;DHT22;11516;51.612;7.510;2023-04-24T10:47:50;8.40;99.90
22698;DHT22;11516;51.612;7.510;2023-04-24T10:50:15;8.40;99.90
22698;DHT22;11516;51.612;7.510;2023-04-24T10:52:45;8.40;99.90
22698;DHT22;11516;51.612;7.510;2023-04-24T10:55:13;8.40;99.90
22698;DHT22;11516;51.612;7.510;2023-04-24T10:57:39;8.40;99.90
22698;DHT22;11516;51.612;7.510;2023-04-24T11:00:21;8.30;99.90
22698;DHT22;11516;51.612;7.510;2023-04-24T11:02:47;8.40;99.90
22698;DHT22;11516;51.612;7.510;2023-04-24T11:05:16;8.30;99.90
22698;DHT22;11516;51.612;7.510;2023-04-24T11:08:11;8.30;99.90
22698;DHT22;11516;51.612;7.510;2023-04-24T11:10:55;8.40;99.90
22698;DHT22;11516;51.612;7.510;2023-04-24T11:13:23;8.40;99.90
22698;DHT22;11516;51.612;7.510;2023-04-24T11:16:13;8.50;99.90
22698;DHT22;11516;51.612;7.510;2023-04-24T11:18:39;8.50;99.90
22698;DHT22;11516;51.612;7.510;2023-04-24T11:21:16;8.50;99.90
22698;DHT22;11516;51.612;7.510;2023-04-24T11:23:42;8.70;99.90
22698;DHT22;11516;51.612;7.510;2023-04-24T11:26:26;8.50;99.90
22698;DHT22;11516;51.612;7.510;2023-04-24T11:29:07;8.50;99.90
22698;DHT22;11516;51.612;7.510;2023-04-24T11:31:38;8.50;99.90
22698;DHT22;11516;51.612;7.510;2023-04-24T11:34:13;8.50;99.90
22698;DHT22;11516;51.612;7.510;2023-04-24T11:36:42;8.50;99.90
22698;DHT22;11516;51.612;7.510;2023-04-24T11:39:07;8.50;99.90
22698;DHT22;11516;51.612;7.510;2023-04-24T11:41:33;8.50;99.90
22698;DHT22;11516;51.612;7.510;2023-04-24T11:44:00;8.50;99.90
22698;DHT22;11516;51.612;7.510;2023-04-24T11:46:27;8.60;99.90
22698;DHT22;11516;51.612;7.510;2023-04-24T11:48:54;8.50;99.90
22698;DHT22;11516;51.612;7.510;2023-04-24T11:51:19;8.60;99.90
22698;DHT22;11516;51.612;7.510;2023-04-24T11:53:45;8.50;99.90
22698;DHT22;11516;51.612;7.510;2023-04-24T11:56:10;8.60;99.90
22698;DHT22;11516;51.612;7.510;2023-04-24T11:58:39;8.50;99.90
22698;DHT22;11516;51.612;7.510;2023-04-24T12:01:05;8.60;99.90
22698;DHT22;11516;51.612;7.510;2023-04-24T12:03:31;8.60;99.90
22698;DHT22;11516;51.612;7.510;2023-04-24T12:06:07;8.70;99.90
22698;DHT22;11516;51.612;7.510;2023-04-24T12:08:36;8.70;99.90
22698;DHT22;11516;51.612;7.510;2023-04-24T12:11:03;8.80;99.90
22698;DHT22;11516;51.612;7.510;2023-04-24T12:13:29;8.80;99.90
22698;DHT22;11516;51.612;7.510;2023-04-24T12:15:54;8.80;99.90
22698;DHT22;11516;51.612;7.510;2023-04-24T12:18:25;8.90;99.90
22698;DHT22;11516;51.612;7.510;2023-04-24T12:20:51;8.90;99.90
22698;DHT22;11516;51.612;7.510;2023-04-24T12:23:28;8.90;99.90
22698;DHT22;11516;51.612;7.510;2023-04-24T12:26:00;8.90;99.90
22698;DHT22;11516;51.612;7.510;2023-04-24T12:28:37;8.90;99.90
22698;DHT22;11516;51.612;7.510;2023-04-24T12:31:04;8.90;99.90
22698;DHT22;11516;51.612;7.510;2023-04-24T12:33:33;8.90;99.90
22698;DHT22;11516;51.612;7.510;2023-04-24T12:36:00;9.00;99.90
22698;DHT22;11516;51.612;7.510;2023-04-24T12:38:27;9.10;99.90
22698;DHT22;11516;51.612;7.510;2023-04-24T12:41:05;9.20;99.90
22698;DHT22;11516;51.612;7.510;2023-04-24T12:43:31;9.30;99.90
22698;DHT22;11516;51.612;7.510;2023-04-24T12:45:57;9.40;99.90
22698;DHT22;11516;51.612;7.510;2023-04-24T12:48:22;9.60;99.90
22698;DHT22;11516;51.612;7.510;2023-04-24T12:50:48;9.50;99.90
22698;DHT22;11516;51.612;7.510;2023-04-24T12:53:14;9.30;99.90
22698;DHT22;11516;51.612;7.510;2023-04-24T12:55:41;9.20;99.90
22698;DHT22;11516;51.612;7.510;2023-04-24T12:58:06;8.90;99.90
22698;DHT22;11516;51.612;7.510;2023-04-24T13:00:32;8.80;99.90
22698;DHT22;11516;51.612;7.510;2023-04-24T13:02:58;8.80;99.90
22698;DHT22;11516;51.612;7.510;2023-04-24T13:05:23;8.90;99.90
22698;DHT22;11516;51.612;7.510;2023-04-24T13:07:49;8.80;99.90
22698;DHT22;11516;51.612;7.510;2023-04-24T13:10:14;8.80;99.90
22698;DHT22;11516;51.612;7.510;2023-04-24T13:12:40;8.90;99.90
22698;DHT22;11516;51.612;7.510;2023-04-24T13:15:06;8.90;99.90
22698;DHT22;11516;51.612;7.510;2023-04-24T13:17:32;8.90;99.90
22698;DHT22;11516;51.612;7.510;2023-04-24T13:19:58;8.90;99.90
22698;DHT22;11516;51.612;7.510;2023-04-24T13:22:24;8.80;99.90
22698;DHT22;11516;51.612;7.510;2023-04-24T13:24:50;8.80;99.90
22698;DHT22;11516;51.612;7.510;2023-04-24T13:27:16;8.70;99.90
22698;DHT22;11516;51.612;7.510;2023-04-24T13:29:41;8.70;99.90
22698;DHT22;11516;51.612;7.510;2023-04-24T13:32:08;8.80;99.90
22698;DHT22;11516;51.612;7.510;2023-04-24T13:34:33;8.70;99.90
22698;DHT22;11516;51.612;7.510;2023-04-24T13:37:02;8.70;99.90
22698;DHT22;11516;51.612;7.510;2023-04-24T13:39:33;8.70;99.90
22698;DHT22;11516;51.612;7.510;2023-04-24T13:41:58;8.70;99.90
22698;DHT22;11516;51.612;7.510;2023-04-24T13:44:24;8.80;99.90
22698;DHT22;11516;51.612;7.510;2023-04-24T13:46:52;8.80;99.90
22698;DHT22;11516;51.612;7.510;2023-04-24T13:49:20;8.70;99.90
22698;DHT22;11516;51.612;7.510;2023-04-24T13:51:45;8.60;99.90
22698;DHT22;11516;51.612;7.510;2023-04-24T13:54:11;8.60;99.90
22698;DHT22;11516;51.612;7.510;2023-04-24T13:56:37;8.40;99.90
22698;DHT22;11516;51.612;7.510;2023-04-24T13:59:02;8.40;99.90
22698;DHT22;11516;51.612;7.510;2023-04-24T14:01:28;8.40;99.90
22698;DHT22;11516;51.612;7.510;2023-04-24T14:03:54;8.40;99.90
22698;DHT22;11516;51.612;7.510;2023-04-24T14:06:21;8.40;99.90
22698;DHT22;11516;51.612;7.510;2023-04-24T14:08:47;8.40;99.90
22698;DHT22;11516;51.612;7.510;2023-04-24T14:11:13;8.40;99.90
22698;DHT22;11516;51.612;7.510;2023-04-24T14:13:40;8.60;99.90
22698;DHT22;11516;51.612;7.510;2023-04-24T14:16:06;8.80;99.90
22698;DHT22;11516;51.612;7.510;2023-04-24T14:18:32;8.70;99.90
22698;DHT22;11516;51.612;7.510;2023-04-24T14:20:57;9.10;99.90
22698;DHT22;11516;51.612;7.510;2023-04-24T14:23:23;9.20;99.90
22698;DHT22;11516;51.612;7.510;2023-04-24T14:25:49;9.00;99.90
22698;DHT22;11516;51.612;7.510;2023-04-24T14:28:18;8.90;99.90
22698;DHT22;11516;51.612;7.510;2023-04-24T14:30:43;8.90;99.90
22698;DHT22;11516;51.612;7.510;2023-04-24T14:33:09;8.70;99.90
22698;DHT22;11516;51.612;7.510;2023-04-24T14:35:35;8.80;99.90
22698;DHT22;11516;51.612;7.510;2023-04-24T14:38:01;8.90;99.90
22698;DHT22;11516;51.612;7.510;2023-04-24T14:40:26;8.90;99.90
22698;DHT22;11516;51.612;7.510;2023-04-24T14:42:52;9.20;99.90
22698;DHT22;11516;51.612;7.510;2023-04-24T14:45:18;8.90;99.90
22698;DHT22;11516;51.612;7.510;2023-04-24T14:47:44;9.00;99.90
22698;DHT22;11516;51.612;7.510;2023-04-24T14:50:10;9.10;99.90
22698;DHT22;11516;51.612;7.510;2023-04-24T14:52:37;8.90;99.90
22698;DHT22;11516;51.612;7.510;2023-04-24T14:55:03;9.00;99.90
22698;DHT22;11516;51.612;7.510;2023-04-24T14:57:29;8.80;99.90
22698;DHT22;11516;51.612;7.510;2023-04-24T14:59:54;8.60;99.90
22698;DHT22;11516;51.612;7.510;2023-04-24T15:02:20;8.60;99.90
22698;DHT22;11516;51.612;7.510;2023-04-24T15:04:46;8.40;99.90
22698;DHT22;11516;51.612;7.510;2023-04-24T15:07:11;8.30;99.90
22698;DHT22;11516;51.612;7.510;2023-04-24T15:09:37;8.30;99.90
22698;DHT22;11516;51.612;7.510;2023-04-24T15:12:03;8.20;99.90
22698;DHT22;11516;51.612;7.510;2023-04-24T15:14:28;8.30;99.90
22698;DHT22;11516;51.612;7.510;2023-04-24T15:16:54;8.20;99.90
22698;DHT22;11516;51.612;7.510;2023-04-24T15:19:19;8.30;99.90
22698;DHT22;11516;51.612;7.510;2023-04-24T15:21:45;8.40;99.90
22698;DHT22;11516;51.612;7.510;2023-04-24T15:24:10;8.70;99.90
22698;DHT22;11516;51.612;7.510;2023-04-24T15:26:36;8.70;99.90
22698;DHT22;11516;51.612;7.510;2023-04-24T15:29:02;9.00;99.90
22698;DHT22;11516;51.612;7.510;2023-04-24T15:31:27;9.00;99.90
22698;DHT22;11516;51.612;7.510;2023-04-24T15:33:53;8.90;99.90
22698;DHT22;11516;51.612;7.510;2023-04-24T15:36:18;9.20;99.90